createdAt,value
2019-06-26T00:01:38.844Z,62.60
2019-06-26T00:04:05.325Z,62.80
2019-06-26T00:06:31.772Z,62.90
2019-06-26T00:08:58.164Z,62.80
2019-06-26T00:11:24.544Z,62.40
2019-06-26T00:13:50.975Z,62.70
2019-06-26T00:16:17.452Z,62.80
2019-06-26T00:18:43.965Z,63.00
2019-06-26T00:21:10.410Z,63.20
2019-06-26T00:23:37.194Z,63.00
2019-06-26T00:26:03.734Z,62.80
2019-06-26T00:28:30.088Z,63.00
2019-06-26T00:30:56.461Z,62.90
2019-06-26T00:33:22.791Z,62.80
2019-06-26T00:35:49.425Z,62.30
2019-06-26T00:38:15.867Z,62.50
2019-06-26T00:40:42.368Z,62.90
2019-06-26T00:43:11.117Z,63.30
2019-06-26T00:45:38.767Z,63.10
2019-06-26T00:48:05.319Z,63.70
2019-06-26T00:50:32.605Z,63.80
2019-06-26T00:52:59.054Z,63.80
2019-06-26T00:55:25.658Z,64.20
2019-06-26T00:57:52.147Z,64.30
2019-06-26T01:00:22.295Z,64.00
2019-06-26T01:02:48.673Z,63.90
2019-06-26T01:05:15.819Z,63.70
2019-06-26T01:07:42.126Z,63.90
2019-06-26T01:10:11.083Z,64.00
2019-06-26T01:12:37.740Z,63.90
2019-06-26T01:15:05.137Z,64.10
2019-06-26T01:17:32.745Z,64.90
2019-06-26T01:19:59.213Z,64.90
2019-06-26T01:22:25.820Z,65.00
2019-06-26T01:24:52.553Z,64.80
2019-06-26T01:27:19.623Z,64.70
2019-06-26T01:29:46.124Z,65.10
2019-06-26T01:32:12.728Z,65.00
2019-06-26T01:34:39.176Z,64.70
2019-06-26T01:37:05.610Z,64.90
2019-06-26T01:39:32.062Z,65.10
2019-06-26T01:41:58.402Z,65.10
2019-06-26T01:44:25.153Z,65.10
2019-06-26T01:46:51.844Z,65.50
2019-06-26T01:49:18.220Z,65.70
2019-06-26T01:51:44.600Z,65.70
2019-06-26T01:54:10.930Z,65.60
2019-06-26T01:56:37.244Z,65.30
2019-06-26T01:59:03.696Z,65.30
2019-06-26T02:01:30.130Z,65.60
2019-06-26T02:03:56.429Z,65.90
2019-06-26T02:06:24.188Z,66.30
2019-06-26T02:08:50.599Z,66.50
2019-06-26T02:11:18.407Z,66.40
2019-06-26T02:13:44.964Z,66.40
2019-06-26T02:16:11.501Z,66.10
2019-06-26T02:18:40.080Z,66.10
2019-06-26T02:21:06.583Z,66.20
2019-06-26T02:23:33.158Z,66.20
2019-06-26T02:26:00.970Z,66.50
2019-06-26T02:28:27.444Z,66.50
2019-06-26T02:30:53.895Z,66.90
2019-06-26T02:33:20.800Z,66.90
2019-06-26T02:35:47.286Z,67.30
2019-06-26T02:38:15.499Z,67.50
2019-06-26T02:40:41.887Z,67.20
2019-06-26T02:43:08.514Z,66.70
2019-06-26T02:45:34.911Z,66.60
2019-06-26T02:48:01.298Z,66.50
2019-06-26T02:50:27.691Z,66.60
2019-06-26T02:52:53.973Z,66.80
2019-06-26T02:55:20.448Z,67.60
2019-06-26T02:57:47.161Z,68.00
2019-06-26T03:00:13.952Z,67.80
2019-06-26T03:02:40.498Z,67.60
2019-06-26T03:05:07.271Z,67.30
2019-06-26T03:07:33.805Z,67.10
2019-06-26T03:10:00.231Z,67.30
2019-06-26T03:12:26.683Z,67.30
2019-06-26T03:15:07.852Z,67.20
2019-06-26T03:17:21.640Z,67.50
2019-06-26T03:19:49.257Z,68.50
2019-06-26T03:22:17.783Z,68.70
2019-06-26T03:24:44.354Z,68.10
2019-06-26T03:27:11.008Z,68.50
2019-06-26T03:29:39.133Z,68.60
2019-06-26T03:32:05.551Z,68.60
2019-06-26T03:34:31.922Z,69.00
2019-06-26T03:36:58.634Z,68.70
2019-06-26T03:39:25.081Z,68.50
2019-06-26T03:41:51.547Z,68.30
2019-06-26T03:44:17.953Z,68.60
2019-06-26T03:46:44.359Z,68.50
2019-06-26T03:49:10.739Z,68.50
2019-06-26T03:51:37.202Z,68.60
2019-06-26T03:54:04.377Z,68.70
2019-06-26T03:56:30.959Z,68.50
2019-06-26T03:58:57.402Z,68.90
2019-06-26T04:01:23.908Z,69.60
2019-06-26T04:03:50.322Z,70.10
2019-06-26T04:06:16.749Z,69.40
2019-06-26T04:08:43.168Z,69.20
2019-06-26T04:11:09.901Z,69.40
2019-06-26T04:13:36.901Z,69.20
2019-06-26T04:16:03.659Z,69.20
2019-06-26T04:18:30.698Z,68.90
2019-06-26T04:20:57.703Z,69.20
2019-06-26T04:23:24.772Z,68.90
2019-06-26T04:25:51.842Z,68.80
2019-06-26T04:28:18.570Z,68.90
2019-06-26T04:30:46.718Z,69.20
2019-06-26T04:33:13.169Z,68.80
2019-06-26T04:35:39.771Z,69.90
2019-06-26T04:38:06.306Z,69.00
2019-06-26T04:40:32.792Z,68.80
2019-06-26T04:42:59.248Z,68.80
2019-06-26T04:45:25.684Z,68.70
2019-06-26T04:47:52.165Z,68.80
2019-06-26T04:50:20.341Z,68.80
2019-06-26T04:52:47.214Z,69.00
2019-06-26T04:55:14.236Z,68.50
2019-06-26T04:57:43.076Z,68.20
2019-06-26T05:00:11.841Z,68.50
2019-06-26T05:02:38.606Z,68.70
2019-06-26T05:05:06.603Z,69.00
2019-06-26T05:07:33.227Z,68.90
2019-06-26T05:09:59.916Z,68.90
2019-06-26T05:12:26.323Z,68.60
2019-06-26T05:14:52.979Z,68.90
2019-06-26T05:17:19.395Z,69.20
2019-06-26T05:19:45.782Z,69.00
2019-06-26T05:22:12.137Z,69.30
2019-06-26T05:24:38.564Z,69.50
2019-06-26T05:27:04.865Z,69.20
2019-06-26T05:29:31.230Z,69.40
2019-06-26T05:31:57.724Z,69.20
2019-06-26T05:34:24.118Z,68.90
2019-06-26T05:36:50.404Z,69.20
2019-06-26T05:39:16.696Z,69.30
2019-06-26T05:41:43.057Z,69.40
2019-06-26T05:44:09.617Z,69.30
2019-06-26T05:46:35.964Z,69.50
2019-06-26T05:49:02.790Z,69.30
2019-06-26T05:51:29.440Z,69.40
2019-06-26T05:53:55.743Z,69.60
2019-06-26T05:56:22.175Z,69.50
2019-06-26T05:58:48.496Z,69.60
2019-06-26T06:01:15.116Z,70.00
2019-06-26T06:03:41.506Z,69.80
2019-06-26T06:06:08.022Z,70.10
2019-06-26T06:08:34.405Z,69.70
2019-06-26T06:11:00.878Z,69.70
2019-06-26T06:13:27.524Z,69.90
2019-06-26T06:15:53.874Z,69.90
2019-06-26T06:18:22.215Z,69.60
2019-06-26T06:20:48.714Z,69.50
2019-06-26T06:23:15.124Z,69.50
2019-06-26T06:25:41.426Z,69.00
2019-06-26T06:28:07.760Z,69.80
2019-06-26T06:30:34.181Z,70.20
2019-06-26T06:33:00.861Z,70.20
2019-06-26T06:35:27.300Z,70.30
2019-06-26T06:37:53.563Z,69.90
2019-06-26T06:40:21.367Z,69.60
2019-06-26T06:42:47.725Z,70.00
2019-06-26T06:45:14.346Z,69.50
2019-06-26T06:47:40.683Z,69.30
2019-06-26T06:50:07.065Z,70.00
2019-06-26T06:52:33.505Z,69.90
2019-06-26T06:55:00.085Z,70.60
2019-06-26T06:57:26.556Z,71.00
2019-06-26T06:59:53.165Z,70.40
2019-06-26T07:02:19.886Z,70.40
2019-06-26T07:04:46.358Z,70.90
2019-06-26T07:07:12.812Z,70.50
2019-06-26T07:09:39.196Z,69.90
2019-06-26T07:12:05.737Z,69.80
2019-06-26T07:14:33.348Z,69.80
2019-06-26T07:17:01.494Z,70.00
2019-06-26T07:19:28.458Z,69.80
2019-06-26T07:21:54.808Z,69.60
2019-06-26T07:24:21.297Z,69.60
2019-06-26T07:26:47.696Z,69.80
2019-06-26T07:29:14.038Z,70.30
2019-06-26T07:31:40.507Z,70.40
2019-06-26T07:34:07.071Z,70.50
2019-06-26T07:36:35.511Z,71.80
2019-06-26T07:39:04.421Z,70.20
2019-06-26T07:41:32.464Z,70.00
2019-06-26T07:43:59.159Z,69.80
2019-06-26T07:46:25.445Z,69.50
2019-06-26T07:48:51.781Z,69.00
2019-06-26T07:51:18.114Z,69.30
2019-06-26T07:53:44.608Z,68.90
2019-06-26T07:56:12.971Z,68.50
2019-06-26T07:58:39.343Z,68.40
2019-06-26T08:01:05.675Z,68.40
2019-06-26T08:03:32.366Z,68.40
2019-06-26T08:05:58.967Z,68.40
2019-06-26T08:08:25.447Z,68.00
2019-06-26T08:10:51.727Z,67.70
2019-06-26T08:13:18.138Z,67.40
2019-06-26T08:15:44.468Z,67.50
2019-06-26T08:18:11.061Z,67.60
2019-06-26T08:20:51.960Z,67.60
2019-06-26T08:23:06.752Z,67.90
2019-06-26T08:25:33.369Z,68.00
2019-06-26T08:27:59.671Z,68.10
2019-06-26T08:30:26.236Z,67.60
2019-06-26T08:32:52.770Z,68.00
2019-06-26T08:35:19.157Z,67.50
2019-06-26T08:37:45.633Z,67.60
2019-06-26T08:40:13.524Z,67.60
2019-06-26T08:42:39.927Z,67.40
2019-06-26T08:45:08.079Z,67.30
2019-06-26T08:47:34.474Z,67.30
2019-06-26T08:50:00.867Z,67.30
2019-06-26T08:52:27.281Z,67.30
2019-06-26T08:54:53.645Z,67.30
2019-06-26T08:57:19.968Z,66.80
2019-06-26T08:59:46.319Z,66.30
2019-06-26T09:02:12.784Z,66.10
2019-06-26T09:04:39.597Z,66.10
2019-06-26T09:07:06.210Z,65.60
2019-06-26T09:09:32.663Z,65.80
2019-06-26T09:11:59.224Z,66.20
2019-06-26T09:14:25.821Z,65.30
2019-06-26T09:16:52.532Z,65.70
2019-06-26T09:19:19.326Z,64.90
2019-06-26T09:21:47.597Z,65.20
2019-06-26T09:24:14.182Z,65.30
2019-06-26T09:26:40.675Z,64.40
2019-06-26T09:29:07.183Z,64.30
2019-06-26T09:31:33.935Z,64.20
2019-06-26T09:34:00.505Z,64.50
2019-06-26T09:36:27.099Z,64.20
2019-06-26T09:38:55.640Z,63.30
2019-06-26T09:41:21.863Z,62.60
2019-06-26T09:43:48.262Z,63.30
2019-06-26T09:46:14.775Z,62.40
2019-06-26T09:48:52.097Z,62.10
2019-06-26T09:51:09.603Z,62.40
2019-06-26T09:53:47.056Z,63.20
2019-06-26T09:56:07.193Z,62.50
2019-06-26T09:58:33.657Z,63.00
2019-06-26T10:01:00.055Z,63.50
2019-06-26T10:03:26.557Z,63.30
2019-06-26T10:05:53.134Z,63.50
2019-06-26T10:08:19.740Z,63.20
2019-06-26T10:10:46.408Z,63.80
2019-06-26T10:13:12.930Z,63.80
2019-06-26T10:15:39.394Z,62.10
2019-06-26T10:18:08.139Z,61.40
2019-06-26T10:20:34.551Z,60.80
2019-06-26T10:23:02.869Z,61.70
2019-06-26T10:25:29.307Z,62.30
2019-06-26T10:27:56.104Z,60.80
2019-06-26T10:30:22.897Z,60.70
2019-06-26T10:32:49.538Z,60.00
2019-06-26T10:35:16.532Z,59.70
2019-06-26T10:37:43.199Z,59.50
2019-06-26T10:40:11.553Z,58.50
2019-06-26T10:43:01.916Z,58.70
2019-06-26T10:45:29.633Z,58.70
2019-06-26T10:47:58.827Z,59.10
2019-06-26T10:50:25.385Z,59.80
2019-06-26T10:52:51.720Z,59.70
2019-06-26T10:55:20.025Z,59.20
2019-06-26T10:57:46.461Z,58.40
2019-06-26T11:00:15.047Z,57.90
2019-06-26T11:02:41.673Z,57.80
2019-06-26T11:05:08.983Z,58.70
2019-06-26T11:07:36.689Z,58.00
2019-06-26T11:10:05.812Z,58.90
2019-06-26T11:12:32.199Z,58.10
2019-06-26T11:14:58.617Z,58.60
2019-06-26T11:17:24.918Z,58.60
2019-06-26T11:19:55.160Z,58.30
2019-06-26T11:22:19.713Z,57.60
2019-06-26T11:24:46.138Z,57.50
2019-06-26T11:27:12.668Z,58.10
2019-06-26T11:29:38.962Z,57.50
2019-06-26T11:32:09.296Z,57.80
2019-06-26T11:34:33.977Z,57.80
2019-06-26T11:37:04.313Z,58.40
2019-06-26T11:39:29.088Z,57.70
2019-06-26T11:41:55.498Z,57.10
2019-06-26T11:44:21.828Z,57.60
2019-06-26T11:46:48.568Z,56.20
2019-06-26T11:49:14.973Z,56.60
2019-06-26T11:51:41.414Z,57.60
2019-06-26T11:54:07.731Z,58.10
2019-06-26T11:56:34.982Z,58.30
2019-06-26T11:59:01.569Z,58.00
2019-06-26T12:01:27.891Z,57.30
2019-06-26T12:03:54.403Z,57.20
2019-06-26T12:06:20.880Z,57.30
2019-06-26T12:08:47.414Z,56.60
2019-06-26T12:11:14.215Z,56.70
2019-06-26T12:13:41.390Z,56.90
2019-06-26T12:16:07.812Z,56.70
2019-06-26T12:18:34.109Z,56.40
2019-06-26T12:21:00.503Z,56.60
2019-06-26T12:23:26.900Z,56.30
2019-06-26T12:25:53.309Z,56.50
2019-06-26T12:28:19.752Z,56.10
2019-06-26T12:30:46.065Z,55.20
2019-06-26T12:33:12.502Z,55.60
2019-06-26T12:35:38.962Z,55.30
2019-06-26T12:38:07.147Z,55.30
2019-06-26T12:40:33.631Z,54.80
2019-06-26T12:43:00.224Z,54.70
2019-06-26T12:45:26.655Z,53.80
2019-06-26T12:47:52.937Z,54.40
2019-06-26T12:50:34.891Z,54.80
2019-06-26T12:52:50.951Z,54.50
2019-06-26T12:55:17.596Z,54.70
2019-06-26T12:57:44.291Z,54.20
2019-06-26T13:00:11.832Z,53.40
2019-06-26T13:02:39.956Z,55.10
2019-06-26T13:05:06.856Z,54.10
2019-06-26T13:07:33.261Z,53.10
2019-06-26T13:09:59.968Z,53.90
2019-06-26T13:12:26.558Z,54.30
2019-06-26T13:14:53.902Z,53.40
2019-06-26T13:17:20.724Z,54.00
2019-06-26T13:19:47.328Z,54.50
2019-06-26T13:22:13.880Z,54.30
2019-06-26T13:24:43.817Z,54.40
2019-06-26T13:27:08.418Z,55.40
2019-06-26T13:29:34.718Z,55.80
2019-06-26T13:32:01.172Z,55.40
2019-06-26T13:34:27.545Z,55.40
2019-06-26T13:36:54.056Z,56.00
2019-06-26T13:39:20.724Z,55.70
2019-06-26T13:41:47.334Z,55.10
2019-06-26T13:44:13.877Z,56.00
2019-06-26T13:46:40.319Z,55.40
2019-06-26T13:49:06.803Z,55.90
2019-06-26T13:51:33.391Z,55.20
2019-06-26T13:53:59.822Z,55.60
2019-06-26T13:56:26.303Z,56.60
2019-06-26T13:58:52.859Z,56.50
2019-06-26T14:01:22.921Z,56.50
2019-06-26T14:03:47.838Z,56.80
2019-06-26T14:06:14.171Z,55.80
2019-06-26T14:08:40.541Z,56.60
2019-06-26T14:11:07.685Z,56.40
2019-06-26T14:13:34.091Z,56.10
2019-06-26T14:16:00.471Z,56.60
2019-06-26T14:18:30.302Z,56.60
2019-06-26T14:20:55.290Z,56.60
2019-06-26T14:23:21.897Z,57.30
2019-06-26T14:25:48.291Z,57.30
2019-06-26T14:28:14.664Z,57.10
2019-06-26T14:30:41.947Z,58.40
2019-06-26T14:33:08.305Z,57.20
2019-06-26T14:35:34.635Z,57.20
2019-06-26T14:38:20.796Z,57.40
2019-06-26T14:40:47.336Z,56.40
2019-06-26T14:43:14.425Z,58.40
2019-06-26T14:45:41.637Z,58.60
2019-06-26T14:48:08.740Z,58.30
2019-06-26T14:50:35.104Z,58.00
2019-06-26T14:53:01.694Z,58.30
2019-06-26T14:55:27.975Z,57.90
2019-06-26T14:57:54.405Z,57.80
2019-06-26T15:00:21.544Z,57.70
2019-06-26T15:02:48.215Z,57.70
2019-06-26T15:05:14.716Z,58.50
2019-06-26T15:07:41.241Z,59.60
2019-06-26T15:10:08.247Z,61.20
2019-06-26T15:12:34.744Z,59.50
2019-06-26T15:15:01.592Z,58.80
2019-06-26T15:17:31.029Z,58.30
2019-06-26T15:19:58.243Z,58.50
2019-06-26T15:22:25.836Z,58.80
2019-06-26T15:24:52.432Z,59.50
2019-06-26T15:27:19.486Z,59.10
2019-06-26T15:29:45.918Z,59.50
2019-06-26T15:32:14.192Z,58.60
2019-06-26T15:34:40.571Z,58.60
2019-06-26T15:37:09.635Z,59.10
2019-06-26T15:39:36.398Z,59.00
2019-06-26T15:42:02.935Z,59.90
2019-06-26T15:44:29.332Z,59.60
2019-06-26T15:46:55.744Z,59.60
2019-06-26T15:49:22.026Z,59.10
2019-06-26T15:51:48.741Z,59.20
2019-06-26T15:54:15.130Z,58.90
2019-06-26T15:56:41.478Z,59.20
2019-06-26T15:59:08.376Z,58.50
2019-06-26T16:01:35.016Z,58.80
2019-06-26T16:04:01.509Z,59.20
2019-06-26T16:06:27.979Z,59.10
2019-06-26T16:08:54.485Z,59.10
2019-06-26T16:11:22.221Z,59.80
2019-06-26T16:13:48.599Z,59.60
2019-06-26T16:16:16.803Z,60.20
2019-06-26T16:18:45.120Z,60.80
2019-06-26T16:21:11.670Z,60.30
2019-06-26T16:23:38.247Z,59.60
2019-06-26T16:26:05.133Z,59.80
2019-06-26T16:28:31.577Z,60.30
2019-06-26T16:30:58.616Z,60.40
2019-06-26T16:33:26.043Z,59.20
2019-06-26T16:35:52.621Z,59.20
2019-06-26T16:38:19.128Z,59.50
2019-06-26T16:40:45.568Z,59.70
2019-06-26T16:43:13.646Z,59.90
2019-06-26T16:45:40.026Z,60.30
2019-06-26T16:48:06.443Z,60.80
2019-06-26T16:50:32.913Z,61.40
2019-06-26T16:52:59.481Z,60.60
2019-06-26T16:55:25.893Z,60.40
2019-06-26T16:57:52.469Z,60.30
2019-06-26T17:00:20.131Z,59.90
2019-06-26T17:02:46.578Z,59.80
2019-06-26T17:05:13.285Z,60.30
2019-06-26T17:07:40.031Z,60.20
2019-06-26T17:10:06.972Z,60.10
2019-06-26T17:12:34.578Z,59.80
2019-06-26T17:15:04.138Z,60.40
2019-06-26T17:17:29.473Z,61.10
2019-06-26T17:19:56.044Z,61.70
2019-06-26T17:22:22.433Z,61.90
2019-06-26T17:24:48.773Z,61.60
2019-06-26T17:27:15.289Z,62.30
2019-06-26T17:29:41.737Z,61.90
2019-06-26T17:32:08.117Z,61.60
2019-06-26T17:34:34.835Z,62.10
2019-06-26T17:37:01.489Z,62.40
2019-06-26T17:39:28.155Z,62.50
2019-06-26T17:41:54.784Z,63.00
2019-06-26T17:44:21.203Z,62.90
2019-06-26T17:46:47.589Z,63.00
2019-06-26T17:49:14.024Z,62.30
2019-06-26T17:51:40.471Z,62.40
2019-06-26T17:54:07.085Z,60.80
2019-06-26T17:56:33.699Z,60.60
2019-06-26T17:59:02.396Z,60.30
2019-06-26T18:01:28.740Z,60.50
2019-06-26T18:03:55.243Z,60.30
2019-06-26T18:06:21.643Z,59.90
2019-06-26T18:08:48.168Z,59.70
2019-06-26T18:11:14.547Z,59.30
2019-06-26T18:13:40.977Z,58.70
2019-06-26T18:16:07.402Z,57.70
2019-06-26T18:18:33.842Z,57.40
2019-06-26T18:21:00.427Z,56.60
2019-06-26T18:23:37.265Z,56.50
2019-06-26T18:26:11.473Z,56.40
2019-06-26T18:28:24.873Z,57.10
2019-06-26T18:30:51.375Z,57.20
2019-06-26T18:33:18.553Z,57.60
2019-06-26T18:35:44.945Z,57.40
2019-06-26T18:38:11.812Z,57.30
2019-06-26T18:40:38.251Z,58.00
2019-06-26T18:43:04.545Z,58.00
2019-06-26T18:45:32.298Z,57.60
2019-06-26T18:47:58.907Z,57.30
2019-06-26T18:50:25.358Z,57.50
2019-06-26T18:52:51.786Z,58.20
2019-06-26T18:55:18.214Z,58.40
2019-06-26T18:57:44.653Z,58.30
2019-06-26T19:00:11.675Z,58.10
2019-06-26T19:02:40.510Z,58.20
2019-06-26T19:05:07.874Z,58.60
2019-06-26T19:07:34.303Z,58.80
2019-06-26T19:10:00.780Z,59.00
2019-06-26T19:12:27.368Z,59.90
2019-06-26T19:14:53.883Z,60.30
2019-06-26T19:17:22.838Z,60.50
2019-06-26T19:19:49.299Z,60.10
2019-06-26T19:22:17.293Z,59.70
2019-06-26T19:24:43.844Z,60.00
2019-06-26T19:27:10.196Z,59.60
2019-06-26T19:29:37.518Z,59.10
2019-06-26T19:32:04.133Z,59.60
2019-06-26T19:34:30.769Z,60.00
2019-06-26T19:36:57.158Z,60.50
2019-06-26T19:39:23.864Z,61.10
2019-06-26T19:41:50.511Z,61.10
2019-06-26T19:44:17.474Z,60.80
2019-06-26T19:46:43.997Z,60.80
2019-06-26T19:49:11.036Z,61.10
2019-06-26T19:51:38.829Z,61.10
2019-06-26T19:54:05.325Z,61.50
2019-06-26T19:56:31.801Z,61.90
2019-06-26T19:58:58.800Z,61.80
2019-06-26T20:01:25.399Z,61.80
2019-06-26T20:03:51.891Z,62.30
2019-06-26T20:06:18.413Z,62.40
2019-06-26T20:08:54.569Z,62.10
2019-06-26T20:11:14.322Z,61.20
2019-06-26T20:13:40.790Z,60.10
2019-06-26T20:16:07.369Z,60.80
2019-06-26T20:18:33.792Z,61.50
2019-06-26T20:21:00.216Z,61.20
2019-06-26T20:23:26.796Z,60.90
2019-06-26T20:25:53.209Z,61.90
2019-06-26T20:28:19.875Z,62.00
2019-06-26T20:30:46.256Z,62.10
2019-06-26T20:33:13.058Z,62.40
2019-06-26T20:35:39.555Z,63.20
2019-06-26T20:38:08.139Z,63.20
2019-06-26T20:40:40.102Z,63.80
2019-06-26T20:43:08.339Z,63.20
2019-06-26T20:45:34.999Z,63.20
2019-06-26T20:48:01.746Z,63.30
2019-06-26T20:50:28.736Z,64.00
2019-06-26T20:52:55.808Z,64.10
2019-06-26T20:55:22.810Z,64.20
2019-06-26T20:57:49.398Z,64.90
2019-06-26T21:00:16.216Z,64.50
2019-06-26T21:02:42.961Z,64.30
2019-06-26T21:05:10.955Z,64.70
2019-06-26T21:07:38.928Z,65.90
2019-06-26T21:10:06.051Z,65.60
2019-06-26T21:12:50.345Z,65.00
2019-06-26T21:15:18.320Z,64.70
2019-06-26T21:17:45.240Z,63.80
2019-06-26T21:20:14.765Z,63.80
2019-06-26T21:22:41.867Z,64.50
2019-06-26T21:25:18.185Z,65.30
2019-06-26T21:27:41.500Z,66.10
2019-06-26T21:30:09.074Z,66.20
2019-06-26T21:32:35.867Z,66.10
2019-06-26T21:35:04.376Z,65.90
2019-06-26T21:37:30.894Z,65.60
2019-06-26T21:39:57.427Z,65.50
2019-06-26T21:42:24.031Z,65.50
2019-06-26T21:44:50.591Z,65.70
2019-06-26T21:47:17.117Z,66.40
2019-06-26T21:49:43.554Z,66.90
2019-06-26T21:52:10.052Z,66.40
2019-06-26T21:54:36.539Z,66.20
2019-06-26T21:57:21.981Z,65.80
2019-06-26T22:00:16.324Z,66.50
2019-06-26T22:03:03.951Z,68.10
2019-06-26T22:05:32.638Z,68.00
2019-06-26T22:08:06.830Z,67.60
2019-06-26T22:10:38.079Z,67.00
2019-06-26T22:13:04.719Z,67.50
2019-06-26T22:15:31.691Z,67.40
2019-06-26T22:17:58.253Z,68.90
2019-06-26T22:20:24.871Z,67.80
2019-06-26T22:22:52.890Z,66.90
2019-06-26T22:25:19.631Z,66.50
2019-06-26T22:27:46.495Z,67.80
2019-06-26T22:30:13.619Z,67.50
2019-06-26T22:32:40.163Z,68.10
2019-06-26T22:35:07.646Z,67.40
2019-06-26T22:37:34.289Z,67.70
2019-06-26T22:40:00.907Z,67.50
2019-06-26T22:42:27.266Z,68.30
2019-06-26T22:44:53.795Z,67.60
2019-06-26T22:47:20.111Z,68.10
2019-06-26T22:49:46.580Z,69.20
2019-06-26T22:52:14.379Z,69.10
2019-06-26T22:54:40.679Z,70.30
2019-06-26T22:57:07.233Z,69.10
2019-06-26T22:59:33.686Z,67.80
2019-06-26T23:02:00.218Z,69.10
2019-06-26T23:04:26.827Z,69.00
2019-06-26T23:06:53.129Z,68.80
2019-06-26T23:09:19.531Z,69.80
2019-06-26T23:11:46.025Z,68.60
2019-06-26T23:14:12.836Z,68.70
2019-06-26T23:16:39.251Z,68.80
2019-06-26T23:19:05.634Z,69.40
2019-06-26T23:21:32.170Z,69.30
2019-06-26T23:23:58.596Z,69.10
2019-06-26T23:26:24.906Z,69.30
2019-06-26T23:28:51.299Z,69.30
2019-06-26T23:31:17.685Z,69.40
2019-06-26T23:33:44.119Z,69.50
2019-06-26T23:36:10.607Z,69.30
2019-06-26T23:38:37.258Z,69.70
2019-06-26T23:41:03.827Z,69.60
2019-06-26T23:43:30.299Z,69.10
2019-06-26T23:45:56.695Z,70.50
2019-06-26T23:48:23.153Z,70.30
2019-06-26T23:50:49.701Z,69.80
2019-06-26T23:53:15.995Z,70.90
2019-06-26T23:55:42.391Z,71.00
2019-06-26T23:58:08.753Z,71.30
